Time;durP1;ratioP1;P1;durP2;ratioP2;P2;SDS_P1;SDS_P2;PMS_P1;PMS_P2;Temp;Humidity;BMP_temperature;BMP_pressure;BME280_temperature;BME280_humidity;BME280_pressure;Samples;Min_cycle;Max_cycle;Signal;HPM_P1;HPM_P2
2022/06/17 00:01:44;;;;;;;4.93;0.73;;;;;;;25.93;29.43;100730.03;5091936;28;20107;-61
2022/06/17 00:04:12;;;;;;;4.53;0.80;;;;;;;25.85;28.24;100726.13;5093287;28;20046;-61
2022/06/17 00:06:48;;;;;;;2.83;1.17;;;;;;;25.11;29.23;100731.06;5093124;28;20024;-62
2022/06/17 00:09:17;;;;;;;4.70;1.10;;;;;;;24.92;30.63;100728.41;5093225;28;20103;-59
2022/06/17 00:11:43;;;;;;;2.45;0.90;;;;;;;24.64;30.29;100711.16;5093469;28;20028;-58
2022/06/17 00:14:16;;;;;;;3.30;1.23;;;;;;;24.28;30.34;100722.75;5093183;28;20484;-57
2022/06/17 00:16:43;;;;;;;2.90;0.90;;;;;;;23.52;30.90;100730.22;5093254;28;20591;-57
2022/06/17 00:19:10;;;;;;;2.42;1.05;;;;;;;23.31;31.86;100717.94;5093092;28;20073;-59
2022/06/17 00:21:40;;;;;;;5.55;1.02;;;;;;;23.35;32.84;100719.78;5092896;28;20032;-58
2022/06/17 00:24:19;;;;;;;2.85;1.00;;;;;;;23.28;33.32;100718.56;5092942;28;20024;-57
2022/06/17 00:26:46;;;;;;;2.90;1.33;;;;;;;22.79;33.08;100720.47;5093369;28;20028;-58
2022/06/17 00:29:20;;;;;;;3.78;1.33;;;;;;;22.38;33.25;100731.81;5084393;28;20032;-59
2022/06/17 00:31:46;;;;;;;4.57;1.38;;;;;;;21.97;33.63;100719.59;5081952;28;20086;-59
2022/06/17 00:34:13;;;;;;;5.95;1.63;;;;;;;21.94;31.81;100710.09;5091095;28;20131;-60
2022/06/17 00:36:40;;;;;;;5.15;1.40;;;;;;;21.73;33.82;100720.34;5079387;28;20035;-59
2022/06/17 00:39:14;;;;;;;8.52;1.58;;;;;;;21.88;34.25;100714.78;5092660;28;20519;-61
2022/06/17 00:41:43;;;;;;;4.78;1.50;;;;;;;21.09;34.22;100713.84;5079735;28;20521;-62
2022/06/17 00:44:42;;;;;;;2.85;1.30;;;;;;;20.97;34.88;100726.16;5073131;22;20057;-61
2022/06/17 00:47:26;;;;;;;4.65;1.40;;;;;;;20.90;34.06;100737.34;5048676;28;20126;-61
2022/06/17 00:50:16;;;;;;;3.63;1.20;;;;;;;20.91;34.28;100722.63;5048458;28;20528;-60
2022/06/17 00:52:49;;;;;;;3.55;1.58;;;;;;;20.62;34.91;100719.75;5050752;28;20086;-60
2022/06/17 00:55:40;;;;;;;7.85;1.58;;;;;;;20.39;35.18;100731.19;5052696;28;20568;-60
2022/06/17 00:58:18;;;;;;;3.38;1.20;;;;;;;20.11;36.06;100729.84;5051724;28;20126;-61
2022/06/17 01:00:45;;;;;;;2.30;1.20;;;;;;;20.30;35.38;100729.00;5052134;28;20063;-61
2022/06/17 01:03:18;;;;;;;4.47;1.80;;;;;;;20.11;36.13;100738.00;5049753;28;20033;-61
2022/06/17 01:05:54;;;;;;;3.13;1.40;;;;;;;20.18;36.28;100720.31;5052612;28;20032;-60
2022/06/17 01:11:17;;;;;;;5.20;1.40;;;;;;;20.48;36.08;100724.09;5051082;28;20523;-62
2022/06/17 01:13:47;;;;;;;3.90;1.70;;;;;;;20.39;34.88;100720.31;5051830;28;20028;-61
2022/06/17 01:16:15;;;;;;;2.15;1.50;;;;;;;19.91;35.51;100725.22;5050446;28;20033;-60
2022/06/17 01:18:44;;;;;;;2.17;1.60;;;;;;;19.97;36.29;100724.13;5051058;28;20032;-60
2022/06/17 01:21:36;;;;;;;4.38;1.40;;;;;;;19.76;36.89;100718.66;5049545;28;20116;-60
2022/06/17 01:24:04;;;;;;;2.85;1.20;;;;;;;19.63;36.06;100723.81;5051776;28;20056;-60
2022/06/17 01:26:30;;;;;;;3.38;1.30;;;;;;;19.69;37.28;100720.84;5050444;28;20037;-59
2022/06/17 01:28:56;;;;;;;5.28;1.67;;;;;;;19.43;37.70;100713.69;5048856;28;20021;-60
2022/06/17 01:31:23;;;;;;;2.38;1.17;;;;;;;19.30;37.36;100723.16;5050760;28;20033;-60
2022/06/17 01:33:49;;;;;;;3.05;1.40;;;;;;;19.28;36.98;100721.81;5051621;28;20028;-60
2022/06/17 01:36:29;;;;;;;4.25;1.13;;;;;;;19.17;38.26;100724.47;5050462;28;20489;-59
2022/06/17 01:38:58;;;;;;;1.73;1.20;;;;;;;19.16;38.30;100725.56;5034281;28;20065;-60
2022/06/17 01:41:28;;;;;;;2.88;1.20;;;;;;;19.05;38.37;100733.94;5051748;28;20492;-60
2022/06/17 01:44:06;;;;;;;4.15;1.50;;;;;;;19.00;37.93;100729.28;5054624;28;20056;-60
2022/06/17 01:46:36;;;;;;;4.22;1.35;;;;;;;18.79;38.41;100736.50;5071870;28;20032;-60
2022/06/17 01:49:11;;;;;;;4.95;1.55;;;;;;;18.88;38.92;100728.69;5055434;28;20021;-59
2022/06/17 01:51:43;;;;;;;5.13;1.52;;;;;;;18.63;40.06;100732.84;5071071;28;20016;-61
2022/06/17 01:54:16;;;;;;;2.50;1.17;;;;;;;18.62;39.61;100733.94;5052147;28;20017;-61
2022/06/17 01:56:46;;;;;;;5.50;1.60;;;;;;;18.62;39.82;100733.94;5051715;28;20036;-60
2022/06/17 01:59:40;;;;;;;2.85;1.35;;;;;;;19.00;39.48;100737.44;5065011;28;20135;-62
2022/06/17 02:02:09;;;;;;;3.50;1.40;;;;;;;18.93;39.43;100731.41;5071425;28;20108;-60
2022/06/17 02:04:43;;;;;;;4.35;1.70;;;;;;;18.98;39.32;100739.56;5071533;28;20056;-60
2022/06/17 02:07:31;;;;;;;3.20;1.48;;;;;;;19.00;39.49;100729.28;5070620;28;20029;-61
2022/06/17 02:09:58;;;;;;;5.43;1.20;;;;;;;19.02;39.90;100731.75;5068686;28;20116;-59
2022/06/17 02:12:27;;;;;;;3.47;1.50;;;;;;;18.69;40.23;100756.25;5070813;28;20086;-59
2022/06/17 02:14:55;;;;;;;3.25;1.70;;;;;;;18.60;41.26;100748.81;5062945;28;20477;-59
2022/06/17 02:17:27;;;;;;;3.17;1.52;;;;;;;18.47;41.21;100747.38;5058007;28;20040;-60
2022/06/17 02:19:55;;;;;;;9.07;1.98;;;;;;;18.48;40.76;100749.81;5049500;28;20021;-59
2022/06/17 02:22:29;;;;;;;4.45;1.52;;;;;;;18.16;41.99;100751.78;5070722;28;20029;-60
2022/06/17 02:25:05;;;;;;;6.10;1.80;;;;;;;18.00;42.62;100744.59;5071220;28;20491;-59
2022/06/17 02:27:34;;;;;;;4.90;1.40;;;;;;;17.96;43.03;100755.13;5071088;28;20043;-60
2022/06/17 02:30:03;;;;;;;6.10;1.73;;;;;;;17.87;43.26;100751.22;5074960;28;20095;-60
2022/06/17 02:32:32;;;;;;;2.70;1.50;;;;;;;17.77;43.07;100746.56;5070364;28;20029;-60
2022/06/17 02:35:34;;;;;;;3.75;1.65;;;;;;;17.43;44.13;100745.88;5053211;28;20025;-60
2022/06/17 02:38:01;;;;;;;3.63;1.50;;;;;;;17.56;44.19;100731.16;5054582;28;20111;-60
2022/06/17 02:40:37;;;;;;;4.45;1.77;;;;;;;17.28;45.20;100737.59;5062479;28;20017;-60
2022/06/17 02:43:14;;;;;;;3.78;1.67;;;;;;;17.40;44.96;100746.41;5074171;28;20029;-61
2022/06/17 02:45:53;;;;;;;3.90;2.17;;;;;;;17.30;45.13;100749.78;5074450;28;20485;-61
2022/06/17 02:48:25;;;;;;;4.53;1.65;;;;;;;17.20;45.88;100746.16;5074548;28;20036;-60
2022/06/17 02:50:54;;;;;;;5.38;1.67;;;;;;;17.08;45.71;100741.69;5074617;28;20032;-60
2022/06/17 02:53:31;;;;;;;4.32;1.92;;;;;;;16.85;46.40;100734.63;5074090;28;20031;-60
2022/06/17 02:55:58;;;;;;;4.43;1.70;;;;;;;16.76;46.47;100743.41;5073878;28;20398;-60
2022/06/17 02:58:36;;;;;;;3.50;1.48;;;;;;;16.85;46.46;100744.63;5073689;28;20031;-60
2022/06/17 03:01:07;;;;;;;3.15;1.45;;;;;;;16.72;46.53;100745.81;5074046;28;20028;-60
2022/06/17 03:03:35;;;;;;;4.45;2.22;;;;;;;16.73;46.52;100739.34;5073558;28;20477;-60
2022/06/17 03:06:02;;;;;;;6.30;1.90;;;;;;;16.62;46.68;100732.94;5073523;28;20496;-58
2022/06/17 03:08:32;;;;;;;5.55;1.70;;;;;;;16.67;46.97;100723.28;5074136;28;20024;-64
2022/06/17 03:11:02;;;;;;;7.80;1.88;;;;;;;16.64;46.58;100738.91;5053923;28;20017;-64
2022/06/17 03:13:53;;;;;;;4.90;1.75;;;;;;;16.72;46.25;100728.78;5054086;28;20100;-63
2022/06/17 03:16:22;;;;;;;6.57;1.70;;;;;;;16.59;46.87;100738.81;5074215;28;20115;-64
2022/06/17 03:18:52;;;;;;;3.92;1.88;;;;;;;16.57;46.89;100743.66;5072965;28;20107;-63
2022/06/17 03:21:23;;;;;;;5.03;1.90;;;;;;;16.55;46.50;100735.00;5056335;28;20125;-63
2022/06/17 03:24:12;;;;;;;7.78;1.90;;;;;;;16.50;46.80;100737.63;5074038;28;20131;-63
2022/06/17 03:26:52;;;;;;;6.00;2.17;;;;;;;16.44;47.14;100749.44;5074128;28;20529;-63
2022/06/17 03:29:21;;;;;;;4.25;2.00;;;;;;;16.10;47.82;100741.34;5073771;28;20103;-64
2022/06/17 03:31:57;;;;;;;3.65;1.80;;;;;;;16.05;48.39;100735.03;5072745;28;20107;-64
2022/06/17 03:34:37;;;;;;;4.45;2.03;;;;;;;16.06;48.23;100747.47;5074154;28;20063;-64
2022/06/17 03:37:17;;;;;;;5.05;2.08;;;;;;;16.07;48.49;100755.31;5073602;28;20040;-64
2022/06/17 03:39:48;;;;;;;4.82;1.67;;;;;;;16.16;48.69;100744.94;5073289;28;20389;-64
2022/06/17 03:43:02;;;;;;;4.80;2.00;;;;;;;16.24;48.88;100738.28;5073570;28;20047;-64
2022/06/17 03:45:36;;;;;;;5.32;2.05;;;;;;;16.25;49.09;100734.53;5073569;28;20044;-63
2022/06/17 03:48:33;;;;;;;3.60;2.00;;;;;;;16.33;48.89;100732.25;5072343;28;20024;-64
2022/06/17 03:50:59;;;;;;;5.65;1.95;;;;;;;16.24;49.10;100741.00;5065453;28;20047;-64
2022/06/17 03:53:29;;;;;;;5.20;2.10;;;;;;;16.15;49.43;100740.56;5093460;28;20048;-64
2022/06/17 03:56:04;;;;;;;3.63;1.52;;;;;;;15.99;49.65;100744.06;5058022;28;20024;-63
2022/06/17 03:58:32;;;;;;;4.47;1.97;;;;;;;15.93;49.83;100747.75;5073471;28;20031;-63
2022/06/17 04:01:16;;;;;;;5.28;2.15;;;;;;;15.81;50.10;100753.22;5072716;28;20738;-64
2022/06/17 04:03:49;;;;;;;4.68;1.95;;;;;;;15.78;50.50;100757.22;5054438;28;20565;-63
2022/06/17 04:06:19;;;;;;;5.13;2.03;;;;;;;15.86;50.42;100757.91;5074704;28;20494;-63
2022/06/17 04:09:03;;;;;;;3.60;1.90;;;;;;;15.78;50.44;100754.53;5090482;28;20487;-63
2022/06/17 04:11:39;;;;;;;4.25;2.05;;;;;;;15.60;51.15;100754.69;5052811;28;20037;-63
2022/06/17 04:14:15;;;;;;;5.00;2.17;;;;;;;15.72;50.95;100755.50;5052936;28;20020;-63
2022/06/17 04:16:50;;;;;;;7.30;2.00;;;;;;;15.69;51.24;100768.66;5034835;28;20029;-63
2022/06/17 04:19:19;;;;;;;6.07;1.50;;;;;;;15.62;51.13;100760.69;5052887;28;20043;-63
2022/06/17 04:21:45;;;;;;;4.30;2.20;;;;;;;15.56;51.36;100769.75;5054960;28;20064;-63
2022/06/17 04:24:23;;;;;;;4.28;1.80;;;;;;;15.69;50.54;100768.66;5072653;28;20029;-63
2022/06/17 04:26:54;;;;;;;5.97;2.20;;;;;;;15.46;51.61;100770.34;5071681;28;20021;-64
2022/06/17 04:29:30;;;;;;;9.82;2.67;;;;;;;15.45;51.61;100767.91;5054817;28;20078;-63
2022/06/17 04:32:13;;;;;;;;;;;;;;;15.51;51.69;100761.53;5072926;28;20027;-63
2022/06/17 04:34:39;;;;;;;8.45;2.05;;;;;;;15.67;51.02;100768.09;5072435;28;20348;-65
2022/06/17 04:37:17;;;;;;;4.82;2.00;;;;;;;15.43;52.24;100770.81;5072644;28;20078;-64
2022/06/17 04:39:53;;;;;;;3.88;2.00;;;;;;;15.49;52.14;100766.34;5071661;28;20028;-62
2022/06/17 04:42:42;;;;;;;5.28;1.90;;;;;;;15.52;52.07;100771.28;5072134;28;20435;-65
2022/06/17 04:45:28;;;;;;;4.43;2.03;;;;;;;15.36;52.34;100774.72;5044549;28;20395;-65
2022/06/17 04:47:55;;;;;;;5.20;1.60;;;;;;;15.31;52.65;100775.44;5052700;28;20028;-63
2022/06/17 04:50:27;;;;;;;3.15;1.88;;;;;;;15.25;53.08;100773.69;5053265;28;20102;-62
2022/06/17 04:52:55;;;;;;;3.95;1.90;;;;;;;15.22;52.96;100768.78;5085933;22;20048;-63
2022/06/17 04:55:24;;;;;;;4.40;2.08;;;;;;;15.27;52.44;100777.00;5074257;28;20024;-63
2022/06/17 04:57:50;;;;;;;3.60;2.17;;;;;;;15.09;53.47;100780.63;5091289;28;20050;-63
2022/06/17 05:00:21;;;;;;;3.75;1.80;;;;;;;15.07;53.96;100779.25;5090743;28;20050;-64
2022/06/17 05:02:48;;;;;;;3.28;2.03;;;;;;;15.13;53.41;100775.59;5092009;28;20028;-64
2022/06/17 05:05:24;;;;;;;3.60;1.85;;;;;;;15.17;53.37;100782.16;5091448;28;20488;-65
2022/06/17 05:07:53;;;;;;;6.43;2.60;;;;;;;15.09;54.16;100785.22;5092336;28;20424;-63
2022/06/17 05:10:25;;;;;;;6.43;2.20;;;;;;;15.17;53.38;100776.78;5090950;28;20020;-63
2022/06/17 05:13:02;;;;;;;3.70;1.83;;;;;;;15.01;54.02;100778.31;5089756;28;20028;-63
2022/06/17 05:15:29;;;;;;;7.03;2.20;;;;;;;15.23;53.34;100778.53;5090868;28;20093;-63
2022/06/17 05:17:56;;;;;;;6.68;2.22;;;;;;;15.07;53.99;100779.25;5090927;28;20043;-64
2022/06/17 05:20:24;;;;;;;5.35;2.30;;;;;;;15.05;53.90;100784.88;5090736;28;20055;-64
2022/06/17 05:22:55;;;;;;;4.82;1.98;;;;;;;15.04;54.19;100783.22;5091758;28;20024;-64
2022/06/17 05:25:28;;;;;;;5.45;2.08;;;;;;;15.01;53.97;100786.41;5089573;28;20063;-63
2022/06/17 05:27:55;;;;;;;3.20;1.92;;;;;;;15.00;53.84;100790.97;5092359;28;20024;-64
2022/06/17 05:30:21;;;;;;;4.47;2.13;;;;;;;14.89;53.96;100802.59;5088428;28;20028;-64
2022/06/17 05:32:53;;;;;;;3.67;1.90;;;;;;;14.89;53.88;100801.78;5090034;28;20048;-64
2022/06/17 05:35:23;;;;;;;7.30;2.23;;;;;;;14.98;53.65;100794.94;5092781;28;20065;-64
2022/06/17 05:37:49;;;;;;;4.35;2.10;;;;;;;14.96;53.87;100807.84;5092018;28;20028;-64
2022/06/17 05:40:16;;;;;;;5.93;1.88;;;;;;;14.88;54.05;100794.72;5091900;28;20480;-64
2022/06/17 05:42:44;;;;;;;6.75;1.95;;;;;;;14.85;53.98;100806.00;5090019;28;20039;-64
2022/06/17 05:45:25;;;;;;;4.95;1.90;;;;;;;15.00;53.59;100804.47;5073674;28;20054;-64
2022/06/17 05:47:52;;;;;;;3.75;1.80;;;;;;;14.84;54.27;100810.56;5092142;28;20046;-64
2022/06/17 05:50:20;;;;;;;5.15;2.55;;;;;;;14.66;54.72;100810.69;5091678;28;20373;-64
2022/06/17 05:53:03;;;;;;;5.50;1.95;;;;;;;14.80;53.88;100814.78;5065901;28;20048;-64
2022/06/17 05:55:31;;;;;;;3.80;2.00;;;;;;;14.84;53.44;100818.66;5091577;28;20385;-64
2022/06/17 05:57:58;;;;;;;5.80;2.13;;;;;;;14.70;54.12;100820.75;5091516;28;20535;-65
2022/06/17 06:00:25;;;;;;;7.38;2.40;;;;;;;14.76;53.48;100814.41;5091583;28;20028;-64
2022/06/17 06:02:56;;;;;;;8.20;2.30;;;;;;;14.76;53.37;100824.38;5091498;28;20169;-64
2022/06/17 06:05:24;;;;;;;5.30;1.88;;;;;;;14.68;53.45;100825.56;5095378;28;20020;-64
2022/06/17 06:07:50;;;;;;;5.53;2.10;;;;;;;14.63;53.45;100827.31;5095854;28;20476;-65
2022/06/17 06:10:17;;;;;;;6.25;2.40;;;;;;;14.57;53.59;100830.94;5095730;28;20028;-64
2022/06/17 06:13:03;;;;;;;5.68;1.85;;;;;;;14.46;54.16;100814.47;5095421;28;20048;-64
2022/06/17 06:15:35;;;;;;;;;;;;;;;14.64;53.33;100823.56;5096028;28;20618;-63
2022/06/17 06:18:02;;;;;;;4.75;2.00;;;;;;;14.56;52.15;100807.75;5095744;28;20065;-64
2022/06/17 06:20:29;;;;;;;6.20;1.60;;;;;;;14.49;51.66;100803.28;5095261;28;20059;-64
2022/06/17 06:22:55;;;;;;;7.40;1.80;;;;;;;14.31;52.03;100815.97;5095077;28;20355;-65
2022/06/17 06:25:22;;;;;;;6.00;1.75;;;;;;;14.42;51.97;100807.91;5095580;28;20020;-64
2022/06/17 06:27:49;;;;;;;4.72;1.67;;;;;;;14.39;52.11;100791.41;5095281;28;20033;-64
2022/06/17 06:30:26;;;;;;;6.32;2.05;;;;;;;14.34;51.75;100777.84;5095336;28;20152;-64
2022/06/17 06:32:58;;;;;;;6.18;1.80;;;;;;;14.29;52.01;100786.59;5076962;28;20031;-64
2022/06/17 06:35:30;;;;;;;3.92;1.38;;;;;;;14.32;51.86;100783.44;5095501;28;20024;-64
2022/06/17 06:37:56;;;;;;;3.72;1.42;;;;;;;14.39;51.96;100770.69;5094918;28;20023;-64
2022/06/17 06:40:23;;;;;;;2.42;1.35;;;;;;;14.49;51.61;100781.75;5091425;28;20484;-64
2022/06/17 06:42:51;;;;;;;5.47;2.22;;;;;;;14.55;51.13;100784.53;5084896;28;20028;-65
2022/06/17 06:45:27;;;;;;;6.20;1.50;;;;;;;14.49;51.27;100792.53;5094986;28;20028;-64
2022/06/17 06:47:55;;;;;;;2.95;1.33;;;;;;;14.51;51.29;100801.19;5075926;28;20385;-65
2022/06/17 06:50:25;;;;;;;4.07;1.50;;;;;;;14.58;51.00;100798.38;5094387;28;20024;-65
2022/06/17 06:52:51;;;;;;;6.80;1.70;;;;;;;14.57;51.81;100804.00;5092251;28;20093;-64
2022/06/17 06:55:18;;;;;;;1.63;1.20;;;;;;;14.50;51.77;100806.81;5094689;28;20020;-65
2022/06/17 06:57:48;;;;;;;4.57;1.80;;;;;;;14.40;52.44;100820.81;5092847;28;20055;-66
2022/06/17 07:00:18;;;;;;;3.58;1.52;;;;;;;14.35;52.67;100826.06;5082263;28;20024;-65
2022/06/17 07:02:44;;;;;;;5.28;1.38;;;;;;;14.36;52.25;100813.41;5094369;28;20058;-65
2022/06/17 07:05:10;;;;;;;4.53;1.45;;;;;;;14.38;52.32;100825.59;5090006;28;20024;-65
2022/06/17 07:07:37;;;;;;;3.53;1.42;;;;;;;14.40;52.04;100803.81;5094677;28;20510;-65
2022/06/17 07:10:04;;;;;;;2.15;1.25;;;;;;;14.23;52.97;100811.75;5094384;28;20032;-65
2022/06/17 07:12:31;;;;;;;4.75;1.77;;;;;;;14.21;53.38;100809.31;5093792;28;20024;-64
2022/06/17 07:14:57;;;;;;;4.28;1.48;;;;;;;14.17;53.08;100815.38;5075390;28;20040;-64
2022/06/17 07:17:23;;;;;;;4.30;1.50;;;;;;;14.14;53.50;100815.81;5081210;28;20058;-64
2022/06/17 07:19:49;;;;;;;5.43;1.75;;;;;;;13.99;54.44;100814.38;5074103;28;20028;-65
2022/06/17 07:22:15;;;;;;;5.13;1.48;;;;;;;13.96;54.31;100806.75;5073723;28;20028;-64
2022/06/17 07:24:42;;;;;;;4.75;1.50;;;;;;;13.90;54.75;100810.38;5055922;28;20028;-65
2022/06/17 07:27:08;;;;;;;6.85;1.30;;;;;;;13.97;53.86;100818.34;5073879;28;20031;-65
2022/06/17 07:29:34;;;;;;;5.18;1.48;;;;;;;14.06;54.33;100811.59;5082495;28;20057;-65
2022/06/17 07:32:00;;;;;;;3.17;1.35;;;;;;;14.02;53.22;100807.72;5094112;28;20024;-65
2022/06/17 07:34:27;;;;;;;7.88;1.75;;;;;;;13.98;53.69;100818.09;5075852;28;20032;-65
2022/06/17 07:39:57;;;;;;;2.13;1.15;;;;;;;14.02;52.11;100820.34;5080339;28;20032;-65
2022/06/17 07:42:37;;;;;;;2.80;1.13;;;;;;;13.81;52.82;100825.19;5073988;28;20069;-65
2022/06/17 07:45:14;;;;;;;3.83;1.30;;;;;;;13.88;52.55;100825.94;5093808;28;20476;-65
2022/06/17 07:47:42;;;;;;;4.43;1.30;;;;;;;13.90;52.44;100823.81;5092400;28;20122;-65
2022/06/17 07:50:12;;;;;;;4.03;1.58;;;;;;;13.88;53.32;100822.41;5093692;28;20035;-65
2022/06/17 07:52:39;;;;;;;5.03;1.33;;;;;;;13.81;53.83;100833.25;5091606;28;20185;-65
2022/06/17 07:55:07;;;;;;;6.22;1.40;;;;;;;14.02;53.15;100837.31;5093700;28;20043;-65
2022/06/17 07:57:33;;;;;;;2.60;1.23;;;;;;;14.00;54.13;100837.56;5073860;28;20024;-65
2022/06/17 07:59:59;;;;;;;5.15;1.67;;;;;;;13.87;54.75;100853.03;5093437;28;20441;-65
2022/06/17 08:02:26;;;;;;;3.50;1.30;;;;;;;13.92;54.18;100845.09;5090828;28;20036;-64
2022/06/17 08:04:52;;;;;;;4.00;1.20;;;;;;;13.91;55.11;100852.38;5085302;28;20503;-65
2022/06/17 08:07:19;;;;;;;4.38;1.50;;;;;;;13.80;56.00;100846.94;5092392;28;20020;-65
2022/06/17 08:09:45;;;;;;;5.45;1.48;;;;;;;13.73;56.09;100842.47;5093199;28;20031;-65
2022/06/17 08:12:13;;;;;;;4.50;1.88;;;;;;;13.85;56.04;100855.97;5092100;28;20089;-65
2022/06/17 08:14:44;;;;;;;4.47;1.35;;;;;;;13.84;56.39;100838.19;5093025;28;20038;-64
2022/06/17 08:17:16;;;;;;;8.15;1.38;;;;;;;13.83;55.84;100847.31;5093082;28;20032;-65
2022/06/17 08:19:46;;;;;;;3.40;1.50;;;;;;;13.82;55.73;100856.41;5092656;28;20472;-66
2022/06/17 08:22:12;;;;;;;2.95;1.20;;;;;;;13.60;56.23;100852.56;5092582;28;20032;-66
2022/06/17 08:24:38;;;;;;;4.97;1.27;;;;;;;13.67;55.68;100851.44;5091808;28;20119;-65
2022/06/17 08:27:05;;;;;;;4.45;1.35;;;;;;;13.72;55.95;100848.09;5083386;28;20374;-65
2022/06/17 08:29:31;;;;;;;2.78;1.45;;;;;;;13.66;56.08;100857.06;5093513;28;20507;-65
2022/06/17 08:32:44;;;;;;;7.30;1.63;;;;;;;13.72;54.58;100856.97;5091212;28;20035;-65
2022/06/17 08:34:43;;;;;;;4.35;1.38;;;;;;;13.79;55.51;100862.25;5093050;28;20027;-66
2022/06/17 08:37:12;;;;;;;6.13;1.52;;;;;;;13.88;54.95;100860.06;5072759;28;20028;-66
2022/06/17 08:39:38;;;;;;;4.13;1.10;;;;;;;13.78;55.44;100854.41;5092466;28;20020;-66
2022/06/17 08:42:36;;;;;;;5.07;1.33;;;;;;;13.86;54.51;100852.22;5091878;28;20032;-66
2022/06/17 08:45:25;;;;;;;3.42;1.27;;;;;;;13.76;55.15;100854.63;5073012;28;20036;-66
2022/06/17 08:48:25;;;;;;;4.30;1.23;;;;;;;13.84;54.84;100843.56;5092940;28;20024;-65
2022/06/17 08:51:13;;;;;;;2.75;1.20;;;;;;;13.82;55.00;100851.03;5069807;28;20113;-65
2022/06/17 08:53:58;;;;;;;2.70;1.17;;;;;;;13.86;54.56;100852.22;5056971;28;20127;-66
2022/06/17 08:56:37;;;;;;;5.93;1.27;;;;;;;13.90;55.59;100850.72;5072332;28;20048;-66
2022/06/17 08:59:46;;;;;;;4.60;1.63;;;;;;;13.83;56.81;100851.88;5063642;28;20377;-65
2022/06/17 09:02:31;;;;;;;3.40;1.10;;;;;;;13.90;56.41;100849.91;5053341;28;20108;-66
2022/06/17 09:05:19;;;;;;;2.80;1.30;;;;;;;13.79;57.22;100848.81;5072069;28;20064;-66
2022/06/17 09:07:48;;;;;;;4.82;1.40;;;;;;;13.90;56.54;100845.34;5070884;28;20050;-65
2022/06/17 09:10:23;;;;;;;4.47;1.58;;;;;;;13.93;56.44;100847.56;5072325;28;20036;-66
2022/06/17 09:12:55;;;;;;;2.38;1.25;;;;;;;13.98;55.24;100842.31;5070624;28;20094;-66
2022/06/17 09:15:36;;;;;;;3.40;1.27;;;;;;;14.15;55.42;100847.06;5071973;28;20041;-66
2022/06/17 09:18:13;;;;;;;2.88;1.52;;;;;;;13.96;56.80;100852.50;5070109;28;20090;-66
2022/06/17 09:20:42;;;;;;;5.07;1.38;;;;;;;13.95;56.45;100842.78;5069913;28;20128;-66
2022/06/17 09:23:15;;;;;;;5.32;1.80;;;;;;;13.90;56.56;100853.41;5070294;28;20029;-66
2022/06/17 09:25:44;;;;;;;3.00;1.48;;;;;;;13.97;57.17;100864.09;5070294;28;20074;-66
2022/06/17 09:28:15;;;;;;;4.38;1.50;;;;;;;13.77;58.29;100868.91;5071792;28;20473;-66
2022/06/17 09:30:58;;;;;;;3.00;1.27;;;;;;;13.84;58.37;100872.34;5053202;28;20029;-66
2022/06/17 09:33:34;;;;;;;3.80;1.75;;;;;;;13.78;58.01;100871.38;5071596;28;20024;-66
2022/06/17 09:36:10;;;;;;;5.22;1.58;;;;;;;13.77;58.86;100877.81;5070626;28;20052;-65
2022/06/17 09:38:42;;;;;;;5.15;1.95;;;;;;;13.84;58.75;100865.09;5071028;28;20024;-66
2022/06/17 09:41:24;;;;;;;6.32;1.58;;;;;;;13.99;58.29;100873.59;5070299;28;20158;-66
2022/06/17 09:43:53;;;;;;;5.57;1.55;;;;;;;13.95;58.25;100872.41;5071841;28;20036;-65
2022/06/17 09:46:34;;;;;;;2.92;1.40;;;;;;;13.93;58.31;100863.72;5071364;28;20025;-66
2022/06/17 09:49:15;;;;;;;5.25;1.42;;;;;;;13.73;59.64;100873.94;5070285;28;20086;-65
2022/06/17 09:52:07;;;;;;;3.33;1.40;;;;;;;13.92;58.13;100872.84;5071070;28;20370;-66
2022/06/17 09:54:47;;;;;;;3.55;1.27;;;;;;;13.87;58.97;100882.63;5089534;28;20123;-65
2022/06/17 09:57:25;;;;;;;5.03;1.80;;;;;;;13.89;59.48;100884.06;5089441;28;20055;-65
2022/06/17 10:00:12;;;;;;;3.25;1.17;;;;;;;13.89;58.97;100872.50;5070498;28;20028;-65
2022/06/17 10:02:52;;;;;;;4.90;1.10;;;;;;;13.79;59.22;100872.19;5078957;28;20167;-66
2022/06/17 10:05:50;;;;;;;4.07;1.30;;;;;;;13.82;58.74;100879.81;5072374;28;20233;-65
2022/06/17 10:08:43;;;;;;;6.97;1.30;;;;;;;13.77;58.25;100876.97;5016239;28;20174;-65
2022/06/17 10:11:16;;;;;;;5.85;1.58;;;;;;;13.66;59.39;100878.56;5059860;28;20056;-65
2022/06/17 10:14:01;;;;;;;4.63;1.27;;;;;;;13.55;59.47;100876.59;5090458;28;20118;-65
2022/06/17 10:19:37;;;;;;;3.67;1.40;;;;;;;13.58;59.47;100871.63;5071918;28;20048;-64
2022/06/17 10:22:24;;;;;;;5.65;1.35;;;;;;;13.55;60.05;100871.22;5083087;28;20035;-64
2022/06/17 10:25:19;;;;;;;5.88;1.27;;;;;;;13.62;60.22;100872.81;5083674;28;20054;-65
2022/06/17 10:27:45;;;;;;;2.85;1.13;;;;;;;13.68;59.59;100873.78;5090568;28;20571;-64
2022/06/17 10:30:32;;;;;;;2.33;0.90;;;;;;;13.61;60.14;100875.75;5090007;28;20085;-64
2022/06/17 10:32:58;;;;;;;7.22;1.40;;;;;;;13.64;60.00;100875.28;5079821;22;20057;-65
2022/06/17 10:35:34;;;;;;;6.40;1.30;;;;;;;13.65;59.75;100876.91;5066838;28;20536;-65
2022/06/17 10:38:06;;;;;;;3.55;1.38;;;;;;;13.64;60.24;100869.88;5051014;28;20477;-64
2022/06/17 10:40:36;;;;;;;3.45;1.30;;;;;;;13.73;59.00;100868.53;5064165;28;20033;-64
2022/06/17 10:43:06;;;;;;;3.60;1.00;;;;;;;13.74;58.94;100867.50;5070856;28;20017;-65
2022/06/17 10:45:36;;;;;;;4.45;1.30;;;;;;;13.61;59.93;100875.75;5069973;28;20028;-65
2022/06/17 10:48:25;;;;;;;8.85;1.70;;;;;;;13.64;59.47;100886.03;5070746;28;20043;-65
2022/06/17 10:50:51;;;;;;;4.18;1.13;;;;;;;13.64;59.24;100886.84;5073102;28;20028;-64
2022/06/17 10:53:40;;;;;;;2.97;0.98;;;;;;;13.79;59.31;100885.66;5074595;28;20046;-64
2022/06/17 10:56:12;;;;;;;3.42;1.10;;;;;;;13.79;58.81;100894.53;5058862;28;20045;-64
2022/06/17 10:58:55;;;;;;;2.55;0.90;;;;;;;13.69;59.33;100894.25;5074481;28;20028;-64
2022/06/17 11:01:22;;;;;;;5.13;1.30;;;;;;;13.77;59.22;100896.66;5073264;28;20460;-64
2022/06/17 11:03:50;;;;;;;3.25;1.30;;;;;;;13.61;59.69;100897.25;5074030;28;20078;-64
2022/06/17 11:06:25;;;;;;;2.55;1.10;;;;;;;13.69;59.17;100902.31;5073575;28;20024;-64
2022/06/17 11:08:57;;;;;;;2.85;1.23;;;;;;;13.78;58.42;100897.47;5073254;28;20031;-65
2022/06/17 11:14:35;;;;;;;5.40;1.25;;;;;;;13.54;60.32;100888.41;5063080;28;20114;-65
2022/06/17 11:17:12;;;;;;;3.90;1.20;;;;;;;13.45;60.93;100894.09;5073961;28;20392;-64
2022/06/17 11:19:41;;;;;;;8.23;1.05;;;;;;;13.50;60.80;100898.00;5055283;28;20397;-64
2022/06/17 11:22:18;;;;;;;3.90;1.50;;;;;;;13.59;60.87;100902.00;5073678;28;20028;-64
2022/06/17 11:24:55;;;;;;;4.28;1.27;;;;;;;13.54;60.98;100907.25;5055045;28;20123;-64
2022/06/17 11:27:41;;;;;;;3.97;1.13;;;;;;;13.51;60.81;100913.91;5072437;28;20033;-64
2022/06/17 11:30:20;;;;;;;3.30;1.27;;;;;;;13.54;61.19;100913.44;5073783;28;20419;-64
2022/06/17 11:32:47;;;;;;;3.10;1.40;;;;;;;13.41;61.53;100914.41;5073369;28;20123;-64
2022/06/17 11:35:37;;;;;;;4.22;1.30;;;;;;;13.39;61.72;100923.75;5073765;28;20127;-65
2022/06/17 11:38:15;;;;;;;4.30;1.40;;;;;;;13.56;61.01;100932.06;5074099;28;20021;-65
2022/06/17 11:40:51;;;;;;;2.90;0.98;;;;;;;13.56;60.57;100926.69;5073767;28;20031;-64
2022/06/17 11:43:38;;;;;;;6.93;1.67;;;;;;;13.50;61.18;100924.88;5073562;28;20103;-65
2022/06/17 11:46:16;;;;;;;8.18;1.30;;;;;;;13.57;60.99;100931.00;5070840;28;20020;-65
2022/06/17 11:48:46;;;;;;;4.97;1.30;;;;;;;13.71;60.23;100925.28;5073327;28;20024;-64
2022/06/17 11:51:25;;;;;;;4.45;1.25;;;;;;;13.80;60.12;100923.09;5062094;28;20029;-64
2022/06/17 11:54:23;;;;;;;10.15;1.45;;;;;;;13.89;59.69;100923.63;5071269;28;20388;-64
2022/06/17 11:56:51;;;;;;;3.38;1.23;;;;;;;13.70;60.02;100923.59;5073235;28;20437;-64
2022/06/17 11:59:22;;;;;;;3.55;1.20;;;;;;;13.71;60.23;100922.59;5073298;28;20472;-64
2022/06/17 12:02:08;;;;;;;3.78;1.13;;;;;;;13.72;59.70;100929.59;5070409;28;20032;-63
2022/06/17 12:04:43;;;;;;;5.20;1.05;;;;;;;13.72;59.73;100936.84;5056534;28;20025;-63
2022/06/17 12:07:38;;;;;;;3.63;1.27;;;;;;;13.75;59.64;100941.75;5053458;28;20048;-62
2022/06/17 12:10:27;;;;;;;2.95;0.90;;;;;;;13.69;59.26;100945.34;5047307;28;20037;-61